createdAt,value
2023-01-07T00:00:30.498Z,10.25
2023-01-07T00:01:30.769Z,10.23
2023-01-07T00:02:31.378Z,10.22
2023-01-07T00:03:32.350Z,10.20
2023-01-07T00:04:32.960Z,10.18
2023-01-07T00:05:33.548Z,10.16
2023-01-07T00:06:34.223Z,10.14
2023-01-07T00:06:42.941Z,9.91
2023-01-07T00:07:43.465Z,9.91
2023-01-07T00:08:43.998Z,9.91
2023-01-07T00:09:44.911Z,9.91
2023-01-07T00:10:45.428Z,9.90
2023-01-07T00:11:45.937Z,9.89
2023-01-07T00:12:46.314Z,9.88
2023-01-07T00:13:46.969Z,9.86
2023-01-07T00:14:47.606Z,9.84
2023-01-07T00:15:48.349Z,9.83
2023-01-07T00:16:48.797Z,9.81
2023-01-07T00:17:49.305Z,9.79
2023-01-07T00:18:50.129Z,9.77
2023-01-07T00:19:50.329Z,9.75
2023-01-07T00:20:50.848Z,9.73
2023-01-07T00:21:51.134Z,9.71
2023-01-07T00:22:51.763Z,9.70
2023-01-07T00:23:52.204Z,9.68
2023-01-07T00:24:52.562Z,9.67
2023-01-07T00:25:52.975Z,9.66
2023-01-07T00:26:53.414Z,9.64
2023-01-07T00:27:54.021Z,9.63
2023-01-07T00:28:54.650Z,9.61
2023-01-07T00:29:55.060Z,9.60
2023-01-07T00:30:55.878Z,9.59
2023-01-07T00:31:56.185Z,9.58
2023-01-07T00:32:57.120Z,9.57
2023-01-07T00:33:57.641Z,9.56
2023-01-07T00:34:58.079Z,9.55
2023-01-07T00:35:58.564Z,9.54
2023-01-07T00:36:58.972Z,9.53
2023-01-07T00:37:07.626Z,9.37
2023-01-07T00:38:08.276Z,9.37
2023-01-07T00:39:08.756Z,9.37
2023-01-07T00:40:09.259Z,9.37
2023-01-07T00:41:09.674Z,9.37
2023-01-07T00:42:10.153Z,9.37
2023-01-07T00:43:10.670Z,9.37
2023-01-07T00:44:11.206Z,9.36
2023-01-07T00:45:11.608Z,9.36
2023-01-07T00:46:12.367Z,9.36
2023-01-07T00:47:12.345Z,9.36
2023-01-07T00:48:12.849Z,9.35
2023-01-07T00:49:13.361Z,9.35
2023-01-07T00:50:13.970Z,9.35
2023-01-07T00:51:14.994Z,9.35
2023-01-07T00:52:14.437Z,9.35
2023-01-07T00:53:14.888Z,9.34
2023-01-07T00:54:15.396Z,9.34
2023-01-07T00:55:15.852Z,9.34
2023-01-07T00:56:16.356Z,9.33
2023-01-07T00:57:16.696Z,9.33
2023-01-07T00:58:17.270Z,9.33
2023-01-07T00:59:18.057Z,9.32
2023-01-07T01:00:18.815Z,9.32
2023-01-07T01:01:19.679Z,9.31
2023-01-07T01:02:20.005Z,9.30
2023-01-07T01:03:20.658Z,9.30
2023-01-07T01:04:21.083Z,9.30
2023-01-07T01:05:21.514Z,9.29
2023-01-07T01:05:30.173Z,9.22
2023-01-07T01:06:30.616Z,9.22
2023-01-07T01:07:31.108Z,9.22
2023-01-07T01:08:31.635Z,9.21
2023-01-07T01:09:32.221Z,9.21
2023-01-07T01:10:32.674Z,9.21
2023-01-07T01:11:33.150Z,9.21
2023-01-07T01:12:33.576Z,9.20
2023-01-07T01:13:34.091Z,9.20
2023-01-07T01:14:34.432Z,9.19
2023-01-07T01:15:34.855Z,9.18
2023-01-07T01:16:35.548Z,9.17
2023-01-07T01:17:35.958Z,9.16
2023-01-07T01:18:36.473Z,9.15
2023-01-07T01:19:37.334Z,9.14
2023-01-07T01:20:37.922Z,9.12
2023-01-07T01:21:38.603Z,9.10
2023-01-07T01:22:39.172Z,9.09
2023-01-07T01:23:39.726Z,9.07
2023-01-07T01:24:40.325Z,9.06
2023-01-07T01:25:41.017Z,9.04
2023-01-07T01:26:41.767Z,9.03
2023-01-07T01:27:42.512Z,9.01
2023-01-07T01:28:43.287Z,9.00
2023-01-07T01:29:44.026Z,8.99
2023-01-07T01:30:44.057Z,8.98
2023-01-07T01:31:44.858Z,8.96
2023-01-07T01:32:45.531Z,8.95
2023-01-07T01:33:45.519Z,8.94
2023-01-07T01:34:46.340Z,8.93
2023-01-07T01:34:55.023Z,8.72
2023-01-07T01:35:55.693Z,8.72
2023-01-07T01:36:56.149Z,8.72
2023-01-07T01:37:56.799Z,8.72
2023-01-07T01:38:56.930Z,8.71
2023-01-07T01:39:57.453Z,8.71
2023-01-07T01:40:57.814Z,8.70
2023-01-07T01:41:58.119Z,8.69
2023-01-07T01:42:58.520Z,8.69
2023-01-07T01:43:58.598Z,8.68
2023-01-07T01:44:59.074Z,8.67
2023-01-07T01:46:00.836Z,8.66
2023-01-07T01:47:00.363Z,8.65
2023-01-07T01:48:00.766Z,8.64
2023-01-07T01:49:01.343Z,8.63
2023-01-07T01:50:01.882Z,8.62
2023-01-07T01:51:02.363Z,8.61
2023-01-07T01:52:02.862Z,8.60
2023-01-07T01:53:03.267Z,8.59
2023-01-07T01:54:03.633Z,8.58
2023-01-07T01:55:03.904Z,8.57
2023-01-07T01:56:04.271Z,8.57
2023-01-07T01:57:04.614Z,8.56
2023-01-07T01:58:05.207Z,8.55
2023-01-07T01:59:05.554Z,8.54
2023-01-07T02:00:05.936Z,8.54
2023-01-07T02:01:06.938Z,8.53
2023-01-07T02:02:07.669Z,8.53
2023-01-07T02:03:07.957Z,8.52
2023-01-07T02:04:08.413Z,8.52
2023-01-07T02:04:17.053Z,8.47
2023-01-07T02:05:17.485Z,8.47
2023-01-07T02:06:17.969Z,8.47
2023-01-07T02:07:18.375Z,8.47
2023-01-07T02:08:18.950Z,8.47
2023-01-07T02:09:19.376Z,8.47
2023-01-07T02:11:25.900Z,8.46
2023-01-07T02:12:24.105Z,8.46
2023-01-07T02:13:24.961Z,8.46
2023-01-07T02:14:25.549Z,8.46
2023-01-07T02:15:26.237Z,8.46
2023-01-07T02:16:26.909Z,8.46
2023-01-07T02:17:27.487Z,8.47
2023-01-07T02:18:28.110Z,8.47
2023-01-07T02:19:28.863Z,8.47
2023-01-07T02:20:29.388Z,8.47
2023-01-07T02:21:30.254Z,8.48
2023-01-07T02:22:30.697Z,8.48
2023-01-07T02:23:31.213Z,8.48
2023-01-07T02:24:31.952Z,8.48
2023-01-07T02:25:32.483Z,8.48
2023-01-07T02:26:33.022Z,8.48
2023-01-07T02:27:33.743Z,8.49
2023-01-07T02:28:34.283Z,8.49
2023-01-07T02:29:34.723Z,8.49
2023-01-07T02:30:35.253Z,8.49
2023-01-07T02:31:35.860Z,8.49
2023-01-07T02:32:36.501Z,8.50
2023-01-07T02:33:37.231Z,8.50
2023-01-07T02:34:37.670Z,8.50
2023-01-07T02:35:38.254Z,8.50
2023-01-07T02:36:38.887Z,8.50
2023-01-07T02:37:39.443Z,8.50
2023-01-07T02:38:40.126Z,8.50
2023-01-07T02:43:18.807Z,8.50
2023-01-07T02:44:19.366Z,8.51
2023-01-07T02:44:28.099Z,8.60
2023-01-07T02:45:28.446Z,8.60
2023-01-07T02:46:28.683Z,8.60
2023-01-07T02:47:29.082Z,8.60
2023-01-07T02:48:29.656Z,8.60
2023-01-07T02:49:30.200Z,8.60
2023-01-07T02:50:30.700Z,8.60
2023-01-07T02:51:31.384Z,8.60
2023-01-07T02:52:31.711Z,8.60
2023-01-07T02:53:32.035Z,8.60
2023-01-07T02:54:32.392Z,8.60
2023-01-07T02:55:32.848Z,8.61
2023-01-07T02:56:33.450Z,8.61
2023-01-07T02:57:34.278Z,8.61
2023-01-07T02:58:34.969Z,8.61
2023-01-07T02:59:35.626Z,8.60
2023-01-07T03:00:36.214Z,8.60
2023-01-07T03:01:36.878Z,8.60
2023-01-07T03:02:37.466Z,8.59
2023-01-07T03:03:38.086Z,8.59
2023-01-07T03:04:38.308Z,8.58
2023-01-07T03:05:39.028Z,8.58
2023-01-07T03:06:39.433Z,8.57
2023-01-07T03:07:40.112Z,8.56
2023-01-07T03:08:40.603Z,8.56
2023-01-07T03:09:41.039Z,8.55
2023-01-07T03:10:41.260Z,8.55
2023-01-07T03:11:41.420Z,8.54
2023-01-07T03:12:41.822Z,8.54
2023-01-07T03:13:42.291Z,8.53
2023-01-07T03:14:42.711Z,8.53
2023-01-07T03:14:51.879Z,8.49
2023-01-07T03:15:52.339Z,8.49
2023-01-07T03:16:52.513Z,8.49
2023-01-07T03:17:53.139Z,8.49
2023-01-07T03:18:53.886Z,8.49
2023-01-07T03:19:54.587Z,8.49
2023-01-07T03:20:54.961Z,8.49
2023-01-07T03:21:54.952Z,8.49
2023-01-07T03:22:55.674Z,8.49
2023-01-07T03:23:56.380Z,8.49
2023-01-07T03:24:57.030Z,8.49
2023-01-07T03:25:57.629Z,8.49
2023-01-07T03:26:58.087Z,8.49
2023-01-07T03:27:58.587Z,8.49
2023-01-07T03:28:59.079Z,8.49
2023-01-07T03:29:59.284Z,8.49
2023-01-07T03:31:00.107Z,8.50
2023-01-07T03:32:01.144Z,8.50
2023-01-07T03:33:01.749Z,8.50
2023-01-07T03:34:02.274Z,8.50
2023-01-07T03:35:02.389Z,8.51
2023-01-07T03:36:03.228Z,8.51
2023-01-07T03:37:04.001Z,8.51
2023-01-07T03:38:04.963Z,8.51
2023-01-07T03:39:05.589Z,8.52
2023-01-07T03:40:06.330Z,8.52
2023-01-07T03:41:07.232Z,8.52
2023-01-07T03:42:07.704Z,8.53
2023-01-07T03:43:08.387Z,8.53
2023-01-07T03:44:09.213Z,8.53
2023-01-07T03:45:09.946Z,8.53
2023-01-07T03:45:19.156Z,8.58
2023-01-07T03:46:19.518Z,8.58
2023-01-07T03:47:20.364Z,8.58
2023-01-07T03:48:20.949Z,8.58
2023-01-07T03:49:21.597Z,8.58
2023-01-07T03:50:21.831Z,8.58
2023-01-07T03:51:21.999Z,8.58
2023-01-07T03:52:22.601Z,8.58
2023-01-07T03:53:22.856Z,8.58
2023-01-07T03:54:23.392Z,8.58
2023-01-07T03:55:23.991Z,8.59
2023-01-07T03:56:24.582Z,8.59
2023-01-07T03:57:25.071Z,8.59
2023-01-07T03:58:25.670Z,8.59
2023-01-07T03:59:25.871Z,8.60
2023-01-07T04:00:26.082Z,8.60
2023-01-07T04:01:26.680Z,8.60
2023-01-07T04:02:27.009Z,8.60
2023-01-07T04:03:27.314Z,8.60
2023-01-07T04:04:27.818Z,8.61
2023-01-07T04:05:27.969Z,8.61
2023-01-07T04:06:28.092Z,8.61
2023-01-07T04:07:28.950Z,8.61
2023-01-07T04:08:29.500Z,8.61
2023-01-07T04:09:29.961Z,8.62
2023-01-07T04:10:30.340Z,8.62
2023-01-07T04:11:30.966Z,8.62
2023-01-07T04:12:31.746Z,8.63
2023-01-07T04:13:32.297Z,8.63
2023-01-07T04:14:32.879Z,8.63
2023-01-07T04:14:41.550Z,8.67
2023-01-07T04:15:41.975Z,8.67
2023-01-07T04:16:42.635Z,8.67
2023-01-07T04:17:43.010Z,8.67
2023-01-07T04:18:43.518Z,8.67
2023-01-07T04:19:44.404Z,8.67
2023-01-07T04:20:45.036Z,8.67
2023-01-07T04:21:45.715Z,8.67
2023-01-07T04:22:46.492Z,8.67
2023-01-07T04:23:47.105Z,8.67
2023-01-07T04:24:47.588Z,8.67
2023-01-07T04:25:48.236Z,8.67
2023-01-07T04:26:48.523Z,8.67
2023-01-07T04:27:48.984Z,8.67
2023-01-07T04:28:49.246Z,8.67
2023-01-07T04:29:49.687Z,8.67
2023-01-07T04:30:50.057Z,8.67
2023-01-07T04:31:50.486Z,8.67
2023-01-07T04:32:51.093Z,8.67
2023-01-07T04:33:51.348Z,8.67
2023-01-07T04:34:52.091Z,8.67
2023-01-07T04:35:52.168Z,8.67
2023-01-07T04:36:52.937Z,8.66
2023-01-07T04:37:52.939Z,8.65
2023-01-07T04:38:53.691Z,8.64
2023-01-07T04:39:54.499Z,8.63
2023-01-07T04:40:55.455Z,8.62
2023-01-07T04:41:55.890Z,8.60
2023-01-07T04:42:56.362Z,8.59
2023-01-07T04:43:56.952Z,8.58
2023-01-07T04:44:05.671Z,8.43
2023-01-07T04:45:06.275Z,8.42
2023-01-07T04:46:07.036Z,8.42
2023-01-07T04:47:07.357Z,8.42
2023-01-07T04:48:07.788Z,8.42
2023-01-07T15:43:57.137Z,8.42
2023-01-07T15:44:57.346Z,8.53
2023-01-07T15:45:57.611Z,8.63
2023-01-07T15:46:58.576Z,8.73
2023-01-07T15:47:59.191Z,8.82
2023-01-07T15:48:59.936Z,8.91
2023-01-07T15:49:59.905Z,8.98
2023-01-07T15:51:00.898Z,9.05
2023-01-07T15:52:01.523Z,9.12
2023-01-07T15:53:02.048Z,9.17
2023-01-07T15:54:02.934Z,9.22
2023-01-07T15:55:03.048Z,9.27
2023-01-07T15:56:03.671Z,9.31
2023-01-07T15:57:04.393Z,9.34
2023-01-07T15:58:05.043Z,9.38
2023-01-07T15:59:05.304Z,9.40
2023-01-07T16:00:06.024Z,9.43
2023-01-07T16:01:06.873Z,9.45
2023-01-07T16:02:07.165Z,9.47
2023-01-07T16:03:08.039Z,9.48
2023-01-07T16:04:08.270Z,9.49
2023-01-07T16:05:08.747Z,9.49
2023-01-07T16:06:09.465Z,9.49
2023-01-07T16:07:10.335Z,9.48
2023-01-07T16:07:19.812Z,9.33
2023-01-07T16:08:19.842Z,9.33
2023-01-07T16:09:20.630Z,9.33
2023-01-07T16:10:21.101Z,9.32
2023-01-07T16:11:21.337Z,9.31
2023-01-07T16:12:22.013Z,9.30
2023-01-07T16:13:22.316Z,9.29
2023-01-07T16:14:22.417Z,9.28
2023-01-07T16:15:22.553Z,9.27
2023-01-07T16:16:23.605Z,9.25
2023-01-07T16:17:24.435Z,9.23
2023-01-07T16:18:24.476Z,9.22
2023-01-07T16:19:24.675Z,9.20
2023-01-07T16:20:25.539Z,9.18
2023-01-07T16:21:25.634Z,9.15
2023-01-07T16:22:26.162Z,9.13
2023-01-07T16:23:26.773Z,9.11
2023-01-07T16:24:27.104Z,9.08
2023-01-07T16:25:27.413Z,9.06
2023-01-07T16:26:27.439Z,9.04
2023-01-07T16:27:27.923Z,9.01
2023-01-07T16:28:28.858Z,8.99
2023-01-07T16:29:29.252Z,8.97
2023-01-07T16:30:29.547Z,8.95
2023-01-07T16:31:29.782Z,8.93
2023-01-07T16:32:30.113Z,8.91
2023-01-07T16:33:31.048Z,8.89
2023-01-07T16:34:31.469Z,8.87
2023-01-07T16:35:32.064Z,8.85
2023-01-07T16:36:32.701Z,8.83
2023-01-07T16:36:41.890Z,8.57
2023-01-07T16:37:42.193Z,8.57
2023-01-07T16:38:43.124Z,8.56
2023-01-07T16:39:43.163Z,8.56
2023-01-07T16:40:43.207Z,8.56
2023-01-07T16:41:43.903Z,8.56
2023-01-07T16:42:43.974Z,8.55
2023-01-07T16:43:44.913Z,8.54
2023-01-07T16:44:46.003Z,8.53
2023-01-07T16:45:46.158Z,8.52
2023-01-07T16:46:46.302Z,8.52
2023-01-07T16:47:46.350Z,8.50
2023-01-07T16:48:47.301Z,8.49
2023-01-07T16:49:48.306Z,8.48
2023-01-07T16:50:49.040Z,8.47
2023-01-07T16:51:49.130Z,8.45
2023-01-07T16:52:49.209Z,8.43
2023-01-07T16:53:50.122Z,8.42
2023-01-07T16:54:51.570Z,8.40
2023-01-07T16:55:50.820Z,8.39
2023-01-07T16:56:51.671Z,8.37
2023-01-07T16:57:52.623Z,8.36
2023-01-07T16:58:52.826Z,8.34
2023-01-07T16:59:54.185Z,8.32
2023-01-07T17:00:54.018Z,8.31
2023-01-07T17:01:54.818Z,8.29
2023-01-07T17:02:54.775Z,8.27
2023-01-07T17:03:55.273Z,8.25
2023-01-07T17:04:56.118Z,8.24
2023-01-07T17:05:56.884Z,8.22
2023-01-07T17:06:57.681Z,8.21
2023-01-07T17:07:58.290Z,8.20
2023-01-07T17:08:06.929Z,8.02
2023-01-07T17:09:07.368Z,8.02
2023-01-07T17:10:08.157Z,8.02
2023-01-07T17:11:08.755Z,8.02
2023-01-07T17:12:09.517Z,8.01
2023-01-07T17:13:10.490Z,8.01
2023-01-07T17:14:11.240Z,8.01
2023-01-07T17:15:12.089Z,8.00
2023-01-07T17:16:12.877Z,8.00
2023-01-07T17:17:13.735Z,8.00
2023-01-07T17:18:14.518Z,7.99
2023-01-07T17:19:15.357Z,7.99
2023-01-07T17:20:15.963Z,7.98
2023-01-07T17:21:16.766Z,7.98
2023-01-07T17:22:17.404Z,7.97
2023-01-07T17:23:18.213Z,7.97
2023-01-07T17:24:18.855Z,7.97
2023-01-07T17:25:19.671Z,7.97
2023-01-07T17:26:19.721Z,7.96
2023-01-07T17:27:20.292Z,7.96
2023-01-07T17:28:20.873Z,7.96
2023-01-07T17:29:21.203Z,7.96
2023-01-07T17:30:21.986Z,7.95
2023-01-07T17:31:21.942Z,7.95
2023-01-07T17:32:22.559Z,7.95
2023-01-07T17:33:23.892Z,7.95
2023-01-07T17:34:25.186Z,7.95
2023-01-07T17:35:24.159Z,7.96
2023-01-07T17:36:25.789Z,7.96
2023-01-07T17:37:25.421Z,7.96
2023-01-07T17:38:26.055Z,7.97
2023-01-07T17:38:36.731Z,8.01
2023-01-07T17:39:37.331Z,8.01
2023-01-07T17:40:37.679Z,8.01
2023-01-07T17:41:38.560Z,8.02
2023-01-07T17:42:39.193Z,8.02
2023-01-07T17:43:39.799Z,8.02
2023-01-07T17:44:40.608Z,8.02
2023-01-07T17:45:41.532Z,8.02
2023-01-07T17:46:41.719Z,8.03
2023-01-07T17:47:42.377Z,8.03
2023-01-07T17:48:43.099Z,8.03
2023-01-07T17:49:43.783Z,8.03
2023-01-07T17:50:44.391Z,8.03
2023-01-07T17:51:44.848Z,8.03
2023-01-07T17:52:45.370Z,8.03
2023-01-07T17:53:45.380Z,8.03
2023-01-07T17:54:46.109Z,8.04
2023-01-07T17:55:46.722Z,8.04
2023-01-07T17:56:46.951Z,8.05
2023-01-07T17:57:47.797Z,8.05
2023-01-07T17:58:47.856Z,8.05
2023-01-07T17:59:48.470Z,8.06
2023-01-07T18:00:49.077Z,8.06
2023-01-07T18:01:49.821Z,8.07
2023-01-07T18:02:50.337Z,8.07
2023-01-07T18:03:50.752Z,8.07
2023-01-07T18:04:51.698Z,8.07
2023-01-07T18:05:52.263Z,8.07
2023-01-07T18:06:53.079Z,8.07
2023-01-07T18:07:54.012Z,8.07
2023-01-07T18:08:54.333Z,8.08
2023-01-07T18:09:03.467Z,8.13
2023-01-07T18:10:04.057Z,8.13
2023-01-07T18:11:04.123Z,8.13
2023-01-07T18:12:04.566Z,8.13
2023-01-07T18:13:04.659Z,8.13
2023-01-07T18:14:05.047Z,8.13
2023-01-07T18:15:05.660Z,8.14
2023-01-07T18:16:06.798Z,8.14
2023-01-07T18:17:07.313Z,8.15
2023-01-07T18:18:08.075Z,8.16
2023-01-07T18:19:08.563Z,8.16
2023-01-07T18:20:09.292Z,8.17
2023-01-07T18:21:09.971Z,8.17
2023-01-07T18:22:10.456Z,8.18
2023-01-07T18:23:11.070Z,8.18
2023-01-07T18:24:11.691Z,8.19
2023-01-07T18:25:12.144Z,8.20
2023-01-07T18:26:12.794Z,8.20
2023-01-07T18:27:13.766Z,8.21
2023-01-07T18:28:14.634Z,8.22
2023-01-07T18:29:15.286Z,8.23
2023-01-07T18:30:15.905Z,8.23
2023-01-07T18:31:16.934Z,8.24
2023-01-07T18:32:17.231Z,8.25
2023-01-07T18:33:17.699Z,8.25
2023-01-07T18:34:18.271Z,8.26
2023-01-07T18:35:18.992Z,8.26
2023-01-07T18:36:19.295Z,8.27
2023-01-07T18:37:20.000Z,8.28
2023-01-07T18:38:20.855Z,8.28
2023-01-07T18:39:21.214Z,8.29
2023-01-07T18:40:21.495Z,8.29
2023-01-07T18:40:31.175Z,8.46
2023-01-07T18:41:31.463Z,8.46
2023-01-07T18:42:33.050Z,8.46
2023-01-07T18:43:32.622Z,8.46
2023-01-07T18:44:33.285Z,8.46
2023-01-07T18:45:34.134Z,8.47
2023-01-07T18:46:34.704Z,8.48
2023-01-07T18:47:35.269Z,8.49
2023-01-07T18:48:35.787Z,8.49
2023-01-07T18:49:36.318Z,8.50
2023-01-07T18:50:37.075Z,8.51
2023-01-07T18:51:37.740Z,8.52
2023-01-07T18:52:38.270Z,8.53
2023-01-07T18:53:39.199Z,8.53
2023-01-07T18:54:39.846Z,8.54
2023-01-07T18:55:40.631Z,8.56
2023-01-07T18:56:41.216Z,8.57
2023-01-07T18:57:41.715Z,8.58
2023-01-07T18:58:44.166Z,8.59
2023-01-07T18:59:42.480Z,8.61
2023-01-07T19:00:42.830Z,8.62
2023-01-07T19:01:43.625Z,8.64
2023-01-07T19:02:43.913Z,8.65
2023-01-07T19:03:44.708Z,8.67
2023-01-07T19:04:45.449Z,8.68
2023-01-07T19:05:46.015Z,8.70
2023-01-07T19:06:46.311Z,8.71
2023-01-07T19:07:46.884Z,8.72
2023-01-07T19:08:47.472Z,8.73
2023-01-07T19:09:48.237Z,8.75
2023-01-07T19:09:57.407Z,8.94
2023-01-07T19:10:59.779Z,8.94
2023-01-07T19:11:58.062Z,8.94
2023-01-07T19:12:59.073Z,8.93
2023-01-07T19:13:59.653Z,8.93
2023-01-07T19:15:00.621Z,8.93
2023-01-07T19:16:01.223Z,8.94
2023-01-07T19:17:01.461Z,8.95
2023-01-07T19:18:01.962Z,8.95
2023-01-07T19:19:02.809Z,8.96
2023-01-07T19:20:03.633Z,8.97
2023-01-07T19:21:04.532Z,8.98
2023-01-07T19:22:05.248Z,8.98
2023-01-07T19:23:06.182Z,8.99
2023-01-07T19:24:07.139Z,8.99
2023-01-07T19:25:07.990Z,9.00
2023-01-07T19:26:08.849Z,9.00
2023-01-07T19:27:09.285Z,9.01
2023-01-07T19:28:09.550Z,9.02
2023-01-07T19:29:09.790Z,9.02
2023-01-07T19:30:09.775Z,9.02
2023-01-07T19:31:10.086Z,9.02
2023-01-07T19:32:12.128Z,9.03
2023-01-07T19:33:11.429Z,9.03
2023-01-07T19:34:12.187Z,9.03
2023-01-07T19:35:12.639Z,9.03
2023-01-07T19:36:12.703Z,9.04
2023-01-07T19:37:13.119Z,9.04
2023-01-07T19:38:13.421Z,9.05
2023-01-07T19:39:14.375Z,9.07
2023-01-07T19:39:24.121Z,9.31
2023-01-07T19:40:24.613Z,9.30
2023-01-07T19:41:24.963Z,9.31
2023-01-07T19:42:26.689Z,9.31
2023-01-07T19:43:25.760Z,9.31
2023-01-07T19:44:26.598Z,9.31
2023-01-07T19:45:27.008Z,9.31
2023-01-07T19:46:27.632Z,9.32
2023-01-07T19:47:28.095Z,9.32
2023-01-07T19:48:28.749Z,9.33
2023-01-07T19:49:29.669Z,9.34
2023-01-07T19:50:29.730Z,9.35
2023-01-07T19:51:30.211Z,9.35
2023-01-07T19:52:31.062Z,9.35
2023-01-07T19:53:31.897Z,9.36
2023-01-07T19:54:32.728Z,9.36
2023-01-07T19:55:33.465Z,9.36
2023-01-07T19:56:33.941Z,9.37
2023-01-07T19:57:34.539Z,9.37
2023-01-07T19:58:34.747Z,9.37
2023-01-07T19:59:34.748Z,9.37
2023-01-07T20:00:35.422Z,9.37
2023-01-07T20:01:35.795Z,9.37
2023-01-07T20:02:35.891Z,9.38
2023-01-07T20:03:36.427Z,9.38
2023-01-07T20:04:36.770Z,9.38
2023-01-07T20:05:37.595Z,9.39
2023-01-07T20:06:37.735Z,9.40
2023-01-07T20:07:38.486Z,9.41
2023-01-07T20:08:39.016Z,9.42
2023-01-07T20:08:53.308Z,9.63
2023-01-07T20:09:53.866Z,9.63
2023-01-07T20:10:54.800Z,9.63
2023-01-07T20:11:55.019Z,9.62
2023-01-07T20:12:55.876Z,9.62
2023-01-07T20:13:56.031Z,9.62
2023-01-07T20:14:56.076Z,9.62
2023-01-07T20:15:56.703Z,9.62
2023-01-07T20:16:57.747Z,9.62
2023-01-07T20:17:58.446Z,9.62
2023-01-07T20:18:58.869Z,9.63
2023-01-07T20:19:58.897Z,9.64
2023-01-07T20:20:59.258Z,9.64
2023-01-07T20:22:00.033Z,9.65
2023-01-07T20:23:00.937Z,9.65
2023-01-07T20:24:01.772Z,9.65
2023-01-07T20:25:01.756Z,9.66
2023-01-07T20:26:02.418Z,9.66
2023-01-07T20:27:03.317Z,9.66
2023-01-07T20:28:03.973Z,9.66
2023-01-07T20:29:04.337Z,9.66
2023-01-07T20:30:05.137Z,9.67
2023-01-07T20:31:06.040Z,9.67
2023-01-07T20:32:06.452Z,9.67
2023-01-07T20:33:07.336Z,9.68
2023-01-07T20:34:07.888Z,9.68
2023-01-07T20:35:08.677Z,9.68
2023-01-07T20:36:08.642Z,9.69
2023-01-07T20:37:09.446Z,9.69
2023-01-07T20:38:09.914Z,9.69
2023-01-07T20:39:09.975Z,9.69
2023-01-07T20:39:20.725Z,9.71
2023-01-07T20:40:20.893Z,9.71
2023-01-07T20:41:21.207Z,9.71
2023-01-07T20:42:21.981Z,9.71
2023-01-07T20:43:22.310Z,9.72
2023-01-07T20:44:22.505Z,9.73
2023-01-07T20:45:22.972Z,9.73
2023-01-07T20:46:23.796Z,9.74
2023-01-07T20:47:24.556Z,9.75
2023-01-07T20:48:24.735Z,9.76
2023-01-07T20:49:25.449Z,9.76
2023-01-07T20:50:26.078Z,9.77
2023-01-07T20:51:26.107Z,9.78
2023-01-07T20:52:26.206Z,9.79
2023-01-07T20:53:27.079Z,9.80
2023-01-07T20:54:27.723Z,9.81
2023-01-07T20:55:27.880Z,9.81
2023-01-07T20:56:28.211Z,9.82
2023-01-07T20:57:28.914Z,9.83
2023-01-07T20:58:29.751Z,9.83
2023-01-07T20:59:30.551Z,9.84
2023-01-07T21:00:31.202Z,9.84
2023-01-07T21:01:32.215Z,9.85
2023-01-07T21:02:33.046Z,9.85
2023-01-07T21:03:33.676Z,9.86
2023-01-07T21:04:33.907Z,9.86
2023-01-07T21:05:34.600Z,9.87
2023-01-07T21:06:35.460Z,9.87
2023-01-07T21:07:35.509Z,9.88
2023-01-07T21:07:44.656Z,10.04
2023-01-07T21:09:35.936Z,10.04
2023-01-07T21:10:35.544Z,10.04
2023-01-07T21:11:35.709Z,10.05
2023-01-07T21:13:32.195Z,10.05
2023-01-07T21:14:22.228Z,10.05
2023-01-07T21:14:36.781Z,10.05
2023-01-07T21:15:38.927Z,10.05
2023-01-07T21:16:39.739Z,10.05
2023-01-07T21:17:37.948Z,10.05
2023-01-07T21:18:38.351Z,10.05
2023-01-07T21:19:46.322Z,10.05
2023-01-07T21:20:41.339Z,10.05
2023-01-07T21:21:39.645Z,10.05
2023-01-07T21:22:42.510Z,10.05
2023-01-07T21:23:40.854Z,10.05
2023-01-07T21:24:41.722Z,10.04
2023-01-07T21:25:42.277Z,10.03
2023-01-07T21:26:50.582Z,10.02
2023-01-07T21:27:43.623Z,10.01
2023-01-07T21:28:44.671Z,10.00
2023-01-07T21:29:44.339Z,9.99
2023-01-07T21:30:44.500Z,9.99
2023-01-07T21:31:45.296Z,9.98
2023-01-07T21:32:47.593Z,9.97
2023-01-07T21:33:45.672Z,9.96
2023-01-07T21:34:46.043Z,9.95
2023-01-07T21:35:48.467Z,9.94
2023-01-07T21:36:49.780Z,9.94
2023-01-07T21:37:53.068Z,9.93
2023-01-07T21:38:47.512Z,9.92
2023-01-07T21:39:02.582Z,9.80
2023-01-07T21:40:02.250Z,9.80
2023-01-07T21:41:02.907Z,9.80
2023-01-07T21:42:03.043Z,9.80
2023-01-07T21:43:03.182Z,9.79
2023-01-07T21:44:03.498Z,9.79
2023-01-07T21:45:06.317Z,9.78
2023-01-07T21:46:04.778Z,9.78
2023-01-07T21:47:07.591Z,9.78
2023-01-07T21:48:05.676Z,9.78
2023-01-07T21:49:08.542Z,9.78
2023-01-07T21:52:25.769Z,9.77
2023-01-07T21:53:26.117Z,9.77
2023-01-07T21:54:26.780Z,9.77
2023-01-07T21:55:29.539Z,9.76
2023-01-07T21:56:27.763Z,9.77
2023-01-07T21:57:28.688Z,9.78
2023-01-07T21:58:31.406Z,9.78
2023-01-07T21:59:29.862Z,9.80
2023-01-07T22:00:33.075Z,9.81
2023-01-07T22:01:31.005Z,9.82
2023-01-07T22:02:31.566Z,9.83
2023-01-07T22:03:31.959Z,9.84
2023-01-07T22:04:32.300Z,9.85
2023-01-07T22:05:32.974Z,9.86
2023-01-07T22:06:41.458Z,9.87
2023-01-07T22:07:34.501Z,9.88
2023-01-07T22:08:34.776Z,9.89
2023-01-07T22:09:35.323Z,9.90
2023-01-07T22:11:04.874Z,10.04
2023-01-07T22:12:02.977Z,10.04
2023-01-07T22:13:03.178Z,10.04
2023-01-07T22:14:04.163Z,10.04
2023-01-07T22:15:04.353Z,10.04
2023-01-07T22:16:04.505Z,10.04
2023-01-07T22:17:05.169Z,10.03
2023-01-07T22:18:05.226Z,10.03
2023-01-07T22:19:06.036Z,10.03
2023-01-07T22:20:06.373Z,10.03
2023-01-07T22:21:06.752Z,10.03
2023-01-07T22:22:07.512Z,10.03
2023-01-07T22:23:07.630Z,10.03
2023-01-07T22:24:08.545Z,10.04
2023-01-07T22:25:09.437Z,10.04
2023-01-07T22:26:12.167Z,10.04
2023-01-07T22:27:09.993Z,10.05
2023-01-07T22:28:10.176Z,10.05
2023-01-07T22:29:10.830Z,10.06
2023-01-07T22:30:11.137Z,10.06
2023-01-07T22:31:11.322Z,10.07
2023-01-07T22:32:13.558Z,10.07
2023-01-07T22:33:11.918Z,10.07
2023-01-07T22:34:14.629Z,10.08
2023-01-07T22:35:19.690Z,10.09
2023-01-07T22:36:12.754Z,10.10
2023-01-07T22:37:15.343Z,10.10
2023-01-07T22:38:13.453Z,10.11
2023-01-07T22:38:23.144Z,10.29
2023-01-07T22:39:23.600Z,10.28
2023-01-07T22:40:23.696Z,10.29
2023-01-07T22:41:31.797Z,10.29
2023-01-07T22:42:25.237Z,10.30
2023-01-07T22:43:25.901Z,10.30
2023-01-07T22:44:26.125Z,10.30
2023-01-07T22:45:26.888Z,10.30
2023-01-07T22:46:27.659Z,10.30
2023-01-07T22:47:28.374Z,10.30
2023-01-07T22:48:29.287Z,10.30
2023-01-07T22:49:29.976Z,10.30
2023-01-07T22:50:32.747Z,10.29
2023-01-07T22:51:30.825Z,10.29
2023-01-07T22:52:33.751Z,10.28
2023-01-07T22:53:39.250Z,10.28
2023-01-07T22:54:34.892Z,10.27
2023-01-07T22:55:33.615Z,10.26
2023-01-07T22:56:35.945Z,10.26
2023-01-07T22:57:34.699Z,10.25
2023-01-07T22:58:35.398Z,10.24
2023-01-07T22:59:36.035Z,10.23
2023-01-07T23:00:36.296Z,10.22
2023-01-07T23:01:38.329Z,10.21
2023-01-07T23:02:38.155Z,10.20
2023-01-07T23:03:41.084Z,10.19
2023-01-07T23:04:49.719Z,10.04
2023-01-07T23:05:49.773Z,10.04
2023-01-07T23:06:50.215Z,10.04
2023-01-07T23:07:51.072Z,10.03
2023-01-07T23:08:51.596Z,10.03
2023-01-07T23:09:52.832Z,10.02
2023-01-07T23:10:52.903Z,10.01
2023-01-07T23:11:53.628Z,10.00
2023-01-07T23:12:54.420Z,10.00
2023-01-07T23:13:54.832Z,9.99
2023-01-07T23:14:58.102Z,9.99
2023-01-07T23:15:55.222Z,9.98
2023-01-07T23:17:02.889Z,9.97
2023-01-07T23:18:03.345Z,9.97
2023-01-07T23:18:56.496Z,9.97
2023-01-07T23:19:57.096Z,9.96
2023-01-07T23:24:27.380Z,9.96
2023-01-07T23:25:20.673Z,9.96
2023-01-07T23:26:19.853Z,9.96
2023-01-07T23:27:20.093Z,9.95
2023-01-07T23:28:20.933Z,9.95
2023-01-07T23:29:37.877Z,9.95
2023-01-07T23:30:31.293Z,9.95
2023-01-07T23:31:32.030Z,9.96
2023-01-07T23:32:32.214Z,9.96
2023-01-07T23:33:40.052Z,9.96
2023-01-07T23:34:36.337Z,9.96
2023-01-07T23:35:34.254Z,9.96
2023-01-07T23:36:34.562Z,9.95
2023-01-07T23:36:49.073Z,9.88
2023-01-07T23:37:46.978Z,9.88
2023-01-07T23:38:47.557Z,9.88
2023-01-07T23:39:48.444Z,9.88
2023-01-07T23:40:49.022Z,9.87
2023-01-07T23:41:49.794Z,9.87
2023-01-07T23:42:50.111Z,9.87
2023-01-07T23:43:50.326Z,9.87
2023-01-07T23:44:51.061Z,9.87
2023-01-07T23:45:51.159Z,9.87
2023-01-07T23:46:51.916Z,9.87
2023-01-07T23:47:52.206Z,9.87
2023-01-07T23:48:52.336Z,9.87
2023-01-07T23:49:53.303Z,9.87
2023-01-07T23:50:54.169Z,9.87
2023-01-07T23:51:54.880Z,9.87
2023-01-07T23:52:55.488Z,9.87
2023-01-07T23:53:56.108Z,9.86
2023-01-07T23:54:57.167Z,9.86
2023-01-07T23:55:57.847Z,9.86
2023-01-07T23:56:58.622Z,9.86
2023-01-07T23:57:59.356Z,9.86
2023-01-07T23:59:02.850Z,9.86
